createdAt,value
2022-11-22T00:01:23.149Z,1.50
2022-11-22T00:03:51.493Z,1.70
2022-11-22T00:06:19.820Z,1.52
2022-11-22T00:08:48.355Z,1.45
2022-11-22T00:11:16.753Z,1.40
2022-11-22T00:13:46.454Z,1.40
2022-11-22T00:16:14.786Z,1.63
2022-11-22T00:18:43.075Z,1.50
2022-11-22T00:21:11.446Z,1.40
2022-11-22T00:23:39.875Z,1.30
2022-11-22T00:26:11.965Z,1.30
2022-11-22T00:28:40.634Z,1.40
2022-11-22T00:31:10.436Z,1.50
2022-11-22T00:33:38.735Z,1.40
2022-11-22T00:36:07.429Z,1.88
2022-11-22T00:38:35.778Z,1.60
2022-11-22T00:41:04.274Z,1.45
2022-11-22T00:43:32.889Z,1.38
2022-11-22T00:46:01.435Z,1.45
2022-11-22T00:48:31.245Z,1.80
2022-11-22T00:50:59.809Z,1.48
2022-11-22T00:53:28.195Z,1.50
2022-11-22T00:55:56.536Z,1.40
2022-11-22T00:58:24.781Z,1.60
2022-11-22T01:00:56.532Z,1.65
2022-11-22T01:03:25.923Z,1.50
2022-11-22T01:05:55.612Z,1.45
2022-11-22T01:08:24.016Z,1.70
2022-11-22T01:10:57.230Z,1.45
2022-11-22T01:13:25.769Z,1.60
2022-11-22T01:15:54.435Z,1.70
2022-11-22T01:18:22.781Z,1.42
2022-11-22T01:20:51.176Z,1.77
2022-11-22T01:23:20.936Z,1.60
2022-11-22T01:25:49.347Z,1.48
2022-11-22T01:28:18.447Z,1.73
2022-11-22T01:30:46.909Z,1.75
2022-11-22T01:33:15.232Z,1.60
2022-11-22T01:35:43.811Z,1.50
2022-11-22T01:38:12.531Z,1.63
2022-11-22T01:40:42.268Z,1.73
2022-11-22T01:43:18.296Z,2.00
2022-11-22T01:45:49.814Z,1.55
2022-11-22T01:48:34.553Z,1.75
2022-11-22T01:51:06.600Z,1.83
2022-11-22T01:53:37.622Z,2.08
2022-11-22T01:56:12.436Z,1.98
2022-11-22T01:58:44.489Z,1.70
2022-11-22T02:01:12.896Z,1.83
2022-11-22T02:03:46.656Z,1.90
2022-11-22T02:06:16.050Z,1.70
2022-11-22T02:08:52.964Z,1.85
2022-11-22T02:11:22.964Z,1.52
2022-11-22T02:13:54.179Z,1.60
2022-11-22T02:16:23.675Z,1.60
2022-11-22T02:18:52.069Z,1.70
2022-11-22T02:21:20.460Z,1.55
2022-11-22T02:23:56.510Z,1.70
2022-11-22T02:26:29.201Z,1.73
2022-11-22T02:29:02.288Z,1.60
2022-11-22T02:31:40.555Z,1.48
2022-11-22T02:34:09.425Z,1.70
2022-11-22T02:36:42.648Z,1.58
2022-11-22T02:39:13.950Z,1.60
2022-11-22T02:41:45.166Z,1.30
2022-11-22T02:44:14.519Z,1.50
2022-11-22T02:46:50.397Z,1.70
2022-11-22T02:49:19.900Z,1.40
2022-11-22T02:51:48.652Z,2.03
2022-11-22T02:54:17.131Z,1.52
2022-11-22T02:56:47.058Z,1.40
2022-11-22T02:59:15.721Z,1.40
2022-11-22T03:01:46.639Z,1.67
2022-11-22T03:04:24.810Z,1.23
2022-11-22T03:06:55.669Z,1.50
2022-11-22T03:09:24.304Z,1.60
2022-11-22T03:11:54.743Z,1.50
2022-11-22T03:14:23.335Z,1.30
2022-11-22T03:16:51.788Z,1.25
2022-11-22T03:19:20.489Z,1.30
2022-11-22T03:21:48.945Z,1.50
2022-11-22T03:24:17.546Z,1.30
2022-11-22T03:26:48.360Z,1.55
2022-11-22T03:29:18.925Z,1.40
2022-11-22T03:31:47.375Z,1.20
2022-11-22T03:34:16.151Z,1.60
2022-11-22T03:36:44.516Z,1.42
2022-11-22T03:39:12.863Z,1.40
2022-11-22T03:41:41.287Z,1.42
2022-11-22T03:44:09.773Z,1.30
2022-11-22T03:46:39.468Z,1.60
2022-11-22T03:49:07.840Z,1.42
2022-11-22T03:51:36.155Z,1.40
2022-11-22T03:54:04.645Z,1.40
2022-11-22T03:56:33.002Z,1.40
2022-11-22T03:59:01.356Z,1.17
2022-11-22T04:01:29.879Z,1.55
2022-11-22T04:03:59.661Z,1.30
2022-11-22T04:06:27.980Z,1.33
2022-11-22T04:08:56.349Z,1.50
2022-11-22T04:11:24.714Z,1.20
2022-11-22T04:14:10.516Z,1.42
2022-11-22T04:16:38.896Z,1.50
2022-11-22T04:19:08.802Z,1.60
2022-11-22T04:21:36.980Z,1.40
2022-11-22T04:24:24.829Z,1.38
2022-11-22T04:26:53.512Z,1.30
2022-11-22T04:29:22.478Z,1.20
2022-11-22T04:32:09.626Z,1.20
2022-11-22T04:34:39.391Z,1.27
2022-11-22T04:37:07.817Z,1.10
2022-11-22T04:39:36.136Z,1.30
2022-11-22T04:42:21.906Z,1.27
2022-11-22T04:44:50.325Z,1.55
2022-11-22T04:47:34.301Z,1.30
2022-11-22T04:50:26.945Z,1.30
2022-11-22T04:52:55.050Z,1.20
2022-11-22T04:55:23.870Z,1.23
2022-11-22T04:57:58.897Z,1.23
2022-11-22T05:00:28.953Z,1.10
2022-11-22T05:02:57.457Z,1.10
2022-11-22T05:05:28.263Z,1.23
2022-11-22T05:07:56.657Z,1.30
2022-11-22T05:10:27.079Z,1.00
2022-11-22T05:12:56.607Z,1.02
2022-11-22T05:15:25.016Z,1.00
2022-11-22T05:17:53.345Z,1.13
2022-11-22T05:20:21.672Z,1.10
2022-11-22T05:23:08.738Z,1.08
2022-11-22T05:25:37.117Z,1.10
2022-11-22T05:28:05.573Z,1.10
2022-11-22T05:30:33.976Z,1.40
2022-11-22T05:33:02.362Z,1.20
2022-11-22T05:35:30.738Z,1.20
2022-11-22T05:38:00.832Z,1.27
2022-11-22T05:40:29.218Z,1.60
2022-11-22T05:42:58.122Z,1.20
2022-11-22T05:45:26.718Z,1.20
2022-11-22T05:47:55.054Z,1.50
2022-11-22T05:50:23.502Z,1.30
2022-11-22T05:52:55.940Z,1.40
2022-11-22T05:55:25.633Z,1.30
2022-11-22T05:57:54.038Z,1.65
2022-11-22T06:00:22.784Z,1.85
2022-11-22T06:02:51.173Z,1.25
2022-11-22T06:05:19.600Z,1.42
2022-11-22T06:07:48.049Z,1.30
2022-11-22T06:10:17.096Z,1.30
2022-11-22T06:12:46.770Z,1.08
2022-11-22T06:15:15.240Z,1.20
2022-11-22T06:17:43.588Z,1.38
2022-11-22T06:20:12.788Z,1.17
2022-11-22T06:22:41.290Z,1.50
2022-11-22T06:25:10.883Z,1.70
2022-11-22T06:27:39.330Z,1.20
2022-11-22T06:30:10.406Z,1.33
2022-11-22T06:32:38.735Z,1.48
2022-11-22T06:35:07.909Z,1.45
2022-11-22T06:37:36.232Z,1.75
2022-11-22T06:40:07.280Z,1.60
2022-11-22T06:42:35.632Z,1.38
2022-11-22T06:45:04.033Z,1.38
2022-11-22T06:47:33.708Z,1.40
2022-11-22T06:50:02.079Z,1.20
2022-11-22T06:52:30.399Z,1.25
2022-11-22T06:54:58.826Z,1.40
2022-11-22T06:57:27.181Z,1.42
2022-11-22T06:59:55.593Z,1.40
2022-11-22T07:02:24.052Z,1.15
2022-11-22T07:05:23.239Z,1.13
2022-11-22T07:07:42.128Z,1.52
2022-11-22T07:10:11.045Z,1.60
2022-11-22T07:12:39.413Z,1.30
2022-11-22T07:15:08.469Z,1.50
2022-11-22T07:17:37.049Z,1.30
2022-11-22T07:20:08.202Z,1.33
2022-11-22T07:22:36.523Z,1.17
2022-11-22T07:25:05.444Z,1.20
2022-11-22T07:27:33.905Z,1.50
2022-11-22T07:30:02.302Z,1.50
2022-11-22T07:32:30.671Z,1.40
2022-11-22T07:34:59.006Z,1.23
2022-11-22T07:37:28.866Z,1.30
2022-11-22T07:39:57.181Z,1.30
2022-11-22T07:42:26.469Z,1.88
2022-11-22T07:44:55.368Z,1.60
2022-11-22T07:47:23.738Z,1.50
2022-11-22T07:49:52.200Z,1.77
2022-11-22T07:52:20.524Z,1.70
2022-11-22T07:54:50.208Z,1.40
2022-11-22T07:57:18.574Z,1.75
2022-11-22T07:59:46.926Z,1.55
2022-11-22T08:02:15.342Z,1.30
2022-11-22T08:04:43.833Z,1.42
2022-11-22T08:07:12.248Z,1.20
2022-11-22T08:09:40.621Z,1.50
2022-11-22T08:12:10.606Z,1.67
2022-11-22T08:14:39.039Z,1.40
2022-11-22T08:17:07.343Z,1.60
2022-11-22T08:19:35.800Z,1.27
2022-11-22T08:22:04.326Z,1.33
2022-11-22T08:24:33.795Z,1.50
2022-11-22T08:27:02.569Z,1.25
2022-11-22T08:29:32.407Z,1.58
2022-11-22T08:32:00.962Z,1.60
2022-11-22T08:34:29.411Z,1.30
2022-11-22T08:36:58.182Z,1.50
2022-11-22T08:39:26.849Z,1.70
2022-11-22T08:41:55.416Z,1.50
2022-11-22T08:44:23.758Z,1.45
2022-11-22T08:46:53.415Z,1.60
2022-11-22T08:49:21.734Z,1.40
2022-11-22T08:51:49.998Z,1.60
2022-11-22T08:54:18.259Z,1.58
2022-11-22T08:56:46.603Z,1.70
2022-11-22T08:59:15.021Z,1.40
2022-11-22T09:01:43.477Z,1.38
2022-11-22T09:04:13.849Z,1.77
2022-11-22T09:09:37.214Z,1.40
2022-11-22T09:12:07.121Z,1.35
2022-11-22T09:14:35.540Z,1.45
2022-11-22T09:17:05.756Z,1.60
2022-11-22T09:19:35.419Z,1.80
2022-11-22T09:22:03.760Z,1.58
2022-11-22T09:24:32.126Z,1.95
2022-11-22T09:27:00.459Z,1.30
2022-11-22T09:29:29.205Z,1.40
2022-11-22T09:31:57.747Z,1.40
2022-11-22T09:34:26.141Z,1.30
2022-11-22T09:36:55.831Z,1.40
2022-11-22T09:39:24.351Z,1.70
2022-11-22T09:42:22.844Z,1.45
2022-11-22T09:45:21.182Z,1.50
2022-11-22T09:47:58.451Z,1.58
2022-11-22T09:50:35.086Z,1.60
2022-11-22T09:53:13.045Z,1.50
2022-11-22T09:55:46.364Z,1.45
2022-11-22T09:58:26.796Z,1.50
2022-11-22T10:00:59.668Z,1.15
2022-11-22T10:03:37.086Z,1.02
2022-11-22T10:06:11.268Z,1.30
2022-11-22T10:08:47.327Z,1.30
2022-11-22T10:11:22.308Z,1.13
2022-11-22T10:13:57.299Z,1.58
2022-11-22T10:16:33.277Z,1.17
2022-11-22T10:19:11.356Z,1.30
2022-11-22T10:21:39.756Z,1.20
2022-11-22T10:24:15.216Z,1.10
2022-11-22T10:26:44.198Z,1.30
2022-11-22T10:29:32.455Z,1.13
2022-11-22T10:32:09.621Z,1.20
2022-11-22T10:34:54.314Z,1.20
2022-11-22T10:37:29.230Z,1.30
2022-11-22T10:40:09.167Z,1.00
2022-11-22T10:43:05.615Z,1.00
2022-11-22T10:45:37.875Z,1.05
2022-11-22T10:48:20.099Z,1.00
2022-11-22T10:50:58.938Z,1.10
2022-11-22T10:53:40.254Z,1.27
2022-11-22T10:56:16.584Z,1.10
2022-11-22T10:58:59.396Z,1.15
2022-11-22T11:01:36.906Z,1.40
2022-11-22T11:04:08.013Z,1.25
2022-11-22T11:07:10.565Z,1.10
2022-11-22T11:10:09.611Z,1.02
2022-11-22T11:12:32.645Z,1.13
2022-11-22T11:15:06.507Z,1.00
2022-11-22T11:17:38.216Z,1.13
2022-11-22T11:20:17.116Z,1.00
2022-11-22T11:23:13.065Z,1.10
2022-11-22T11:25:40.319Z,1.00
2022-11-22T11:28:14.185Z,0.90
2022-11-22T11:30:44.889Z,1.23
2022-11-22T11:33:26.891Z,1.20
2022-11-22T11:35:58.284Z,1.20
2022-11-22T11:38:28.253Z,1.20
2022-11-22T11:40:56.743Z,1.05
2022-11-22T11:43:26.714Z,0.98
2022-11-22T11:45:55.071Z,1.00
2022-11-22T11:48:35.905Z,0.93
2022-11-22T11:51:09.455Z,1.08
2022-11-22T11:53:38.466Z,1.00
2022-11-22T11:56:21.603Z,0.90
2022-11-22T11:58:56.278Z,1.15
2022-11-22T12:03:59.492Z,1.25
2022-11-22T12:06:32.185Z,0.90
2022-11-22T12:09:02.576Z,1.10
2022-11-22T12:11:42.670Z,1.33
2022-11-22T12:14:21.453Z,1.10
2022-11-22T12:16:55.264Z,1.10
2022-11-22T12:19:32.196Z,1.00
2022-11-22T12:22:06.005Z,1.30
2022-11-22T12:24:57.001Z,0.93
2022-11-22T12:27:29.976Z,0.93
2022-11-22T12:30:00.009Z,1.02
2022-11-22T12:32:33.865Z,0.85
2022-11-22T12:35:06.539Z,0.90
2022-11-22T12:37:41.178Z,0.90
2022-11-22T12:42:48.433Z,0.80
2022-11-22T12:45:28.391Z,0.98
2022-11-22T12:48:01.873Z,0.98
2022-11-22T12:50:38.648Z,0.85
2022-11-22T12:53:13.432Z,0.80
2022-11-22T12:55:49.183Z,0.82
2022-11-22T12:58:22.389Z,0.90
2022-11-22T13:01:05.747Z,0.90
2022-11-22T13:03:38.616Z,1.00
2022-11-22T13:06:10.001Z,1.10
2022-11-22T13:08:43.392Z,0.80
2022-11-22T13:11:17.389Z,0.93
2022-11-22T13:13:50.906Z,0.90
2022-11-22T13:16:20.723Z,0.90
2022-11-22T13:18:53.162Z,0.80
2022-11-22T13:21:31.890Z,0.90
2022-11-22T13:24:17.983Z,0.80
2022-11-22T13:26:54.584Z,0.90
2022-11-22T13:29:25.612Z,0.90
2022-11-22T13:32:04.653Z,0.90
2022-11-22T13:34:34.706Z,0.90
2022-11-22T13:37:11.429Z,0.88
2022-11-22T13:39:44.601Z,0.88
2022-11-22T13:42:15.797Z,0.90
2022-11-22T13:44:52.451Z,0.80
2022-11-22T13:47:43.000Z,0.80
2022-11-22T13:50:54.830Z,0.90
2022-11-22T13:53:28.886Z,0.90
2022-11-22T13:56:00.013Z,0.80
2022-11-22T13:58:55.646Z,1.20
2022-11-22T14:01:58.427Z,0.93
2022-11-22T14:04:38.793Z,0.90
2022-11-22T14:07:23.198Z,1.00
2022-11-22T14:09:59.018Z,1.00
2022-11-22T14:13:05.738Z,0.80
2022-11-22T14:15:52.584Z,0.80
2022-11-22T14:18:44.465Z,1.00
2022-11-22T14:21:24.748Z,0.90
2022-11-22T14:24:05.964Z,0.90
2022-11-22T14:26:45.783Z,0.90
2022-11-22T14:30:05.667Z,0.90
2022-11-22T14:32:43.833Z,0.80
2022-11-22T14:35:27.909Z,1.00
2022-11-22T14:38:31.238Z,0.90
2022-11-22T14:41:33.040Z,0.88
2022-11-22T14:44:03.237Z,0.85
2022-11-22T14:46:52.757Z,0.75
2022-11-22T14:49:31.098Z,0.80
2022-11-22T14:52:00.498Z,0.80
2022-11-22T14:54:39.972Z,0.80
2022-11-22T14:57:13.946Z,0.70
2022-11-22T15:00:08.814Z,0.60
2022-11-22T15:03:06.157Z,0.80
2022-11-22T15:09:11.680Z,0.80
2022-11-22T15:09:17.865Z,0.90
2022-11-22T15:12:09.404Z,0.70
2022-11-22T15:59:11.554Z,0.80
2022-11-22T16:01:44.593Z,0.80
2022-11-22T16:04:22.921Z,0.70
2022-11-22T16:06:52.746Z,0.70
2022-11-22T16:09:26.550Z,0.70
2022-11-22T16:12:01.201Z,0.75
2022-11-22T16:17:32.410Z,0.75
2022-11-22T16:20:27.622Z,0.70
2022-11-22T16:23:24.784Z,0.80
2022-11-22T16:25:57.869Z,0.80
2022-11-22T16:28:29.882Z,0.80
2022-11-22T16:31:00.412Z,0.70
2022-11-22T16:33:30.971Z,0.82
2022-11-22T16:36:01.064Z,0.70
2022-11-22T16:38:30.215Z,0.80
2022-11-22T16:41:00.052Z,0.70
2022-11-22T16:43:35.229Z,0.73
2022-11-22T16:46:03.866Z,0.80
2022-11-22T16:48:33.919Z,0.90
2022-11-22T16:51:07.002Z,0.80
2022-11-22T16:53:42.262Z,0.93
2022-11-22T16:56:17.749Z,1.08
2022-11-22T16:58:46.577Z,0.90
2022-11-22T17:01:17.056Z,0.90
2022-11-22T17:03:48.250Z,0.90
2022-11-22T17:06:18.506Z,0.80
2022-11-22T17:08:47.846Z,0.70
2022-11-22T17:11:18.228Z,0.70
2022-11-22T17:13:46.741Z,0.80
2022-11-22T17:16:17.656Z,0.70
2022-11-22T17:18:48.474Z,0.90
2022-11-22T17:21:22.420Z,0.80
2022-11-22T17:23:51.304Z,0.80
2022-11-22T17:26:19.597Z,0.73
2022-11-22T17:28:47.878Z,0.70
2022-11-22T17:31:18.042Z,0.77
2022-11-22T17:33:50.480Z,0.88
2022-11-22T17:36:24.200Z,0.82
2022-11-22T17:38:52.564Z,0.90
2022-11-22T17:41:21.010Z,1.00
2022-11-22T17:43:50.171Z,0.80
2022-11-22T17:46:18.968Z,0.80
2022-11-22T17:48:53.890Z,0.80
2022-11-22T17:51:23.193Z,1.20
2022-11-22T17:53:51.560Z,1.10
2022-11-22T17:56:20.090Z,0.82
2022-11-22T17:58:48.759Z,0.80
2022-11-22T18:01:19.138Z,0.77
2022-11-22T18:03:48.183Z,0.80
2022-11-22T18:06:21.405Z,0.90
2022-11-22T18:08:50.271Z,0.90
2022-11-22T18:11:18.706Z,0.80
2022-11-22T18:13:47.043Z,0.85
2022-11-22T18:16:18.093Z,0.80
2022-11-22T18:19:02.067Z,0.85
2022-11-22T18:21:33.272Z,1.00
2022-11-22T18:24:02.513Z,0.90
2022-11-22T18:26:39.364Z,1.15
2022-11-22T18:31:58.009Z,0.90
2022-11-22T18:34:27.474Z,0.85
2022-11-22T18:37:02.042Z,0.98
2022-11-22T18:39:32.368Z,1.00
2022-11-22T18:42:01.212Z,0.90
2022-11-22T18:44:29.577Z,0.90
2022-11-22T18:46:57.922Z,1.10
2022-11-22T18:49:26.406Z,1.00
2022-11-22T18:51:55.574Z,1.20
2022-11-22T18:54:25.644Z,1.02
2022-11-22T18:56:54.138Z,1.30
2022-11-22T18:59:22.598Z,1.13
2022-11-22T19:01:50.948Z,1.10
2022-11-22T19:04:19.592Z,1.20
2022-11-22T19:06:47.900Z,1.20
2022-11-22T19:09:16.272Z,1.23
2022-11-22T19:11:45.987Z,1.40
2022-11-22T19:14:14.454Z,1.00
2022-11-22T19:16:42.900Z,1.30
2022-11-22T19:19:12.207Z,1.35
2022-11-22T19:21:40.693Z,1.60
2022-11-22T19:24:09.413Z,1.70
2022-11-22T19:26:37.764Z,1.58
2022-11-22T19:29:08.630Z,1.48
2022-11-22T19:31:37.000Z,1.50
2022-11-22T19:34:05.598Z,1.25
2022-11-22T19:36:36.138Z,1.50
2022-11-22T19:39:06.019Z,1.52
2022-11-22T19:41:34.968Z,1.50
2022-11-22T19:44:03.619Z,1.50
2022-11-22T19:46:33.433Z,1.60
2022-11-22T19:49:02.389Z,1.40
2022-11-22T19:51:32.042Z,1.38
2022-11-22T19:54:02.871Z,1.30
2022-11-22T19:56:33.060Z,1.38
2022-11-22T19:59:03.178Z,1.50
2022-11-22T20:01:35.105Z,1.45
2022-11-22T20:04:06.462Z,1.58
2022-11-22T20:06:36.313Z,1.63
2022-11-22T20:09:05.812Z,1.52
2022-11-22T20:11:34.184Z,1.50
2022-11-22T20:14:02.623Z,1.70
2022-11-22T20:16:32.553Z,1.60
2022-11-22T20:19:04.621Z,1.40
2022-11-22T20:21:34.438Z,1.30
2022-11-22T20:24:03.390Z,1.48
2022-11-22T20:26:33.090Z,1.45
2022-11-22T20:29:03.053Z,1.25
2022-11-22T20:31:32.750Z,1.30
2022-11-22T20:34:02.951Z,1.40
2022-11-22T20:36:33.067Z,1.38
2022-11-22T20:39:05.570Z,1.30
2022-11-22T20:41:37.433Z,1.40
2022-11-22T20:44:06.120Z,1.70
2022-11-22T20:46:37.680Z,1.50
2022-11-22T20:49:08.035Z,1.70
2022-11-22T20:51:39.535Z,1.60
2022-11-22T20:54:08.720Z,1.60
2022-11-22T20:56:37.454Z,1.50
2022-11-22T20:59:06.789Z,1.50
2022-11-22T21:01:35.160Z,1.67
2022-11-22T21:04:03.908Z,1.65
2022-11-22T21:06:34.979Z,1.75
2022-11-22T21:09:03.472Z,1.42
2022-11-22T21:11:32.119Z,1.40
2022-11-22T21:14:00.560Z,2.00
2022-11-22T21:16:30.295Z,2.47
2022-11-22T21:19:01.089Z,2.28
2022-11-22T21:21:30.617Z,2.25
2022-11-22T21:24:02.088Z,2.20
2022-11-22T21:26:31.205Z,2.20
2022-11-22T21:29:00.396Z,1.90
2022-11-22T21:31:29.126Z,1.92
2022-11-22T21:33:57.947Z,2.00
2022-11-22T21:36:26.283Z,1.75
2022-11-22T21:38:54.660Z,1.70
2022-11-22T21:41:39.287Z,1.60
2022-11-22T21:44:08.757Z,1.70
2022-11-22T21:46:37.578Z,1.60
2022-11-22T21:49:06.220Z,1.75
2022-11-22T21:51:34.531Z,1.58
2022-11-22T21:54:03.722Z,1.40
2022-11-22T21:56:33.625Z,2.00
2022-11-22T21:59:02.062Z,1.70
2022-11-22T22:01:30.507Z,1.70
2022-11-22T22:03:58.984Z,1.60
2022-11-22T22:06:27.457Z,1.48
2022-11-22T22:08:55.905Z,1.50
2022-11-22T22:11:24.507Z,1.50
2022-11-22T22:13:55.264Z,1.67
2022-11-22T22:16:25.946Z,1.70
2022-11-22T22:18:54.610Z,1.80
2022-11-22T22:21:23.047Z,1.83
2022-11-22T22:23:51.567Z,1.60
2022-11-22T22:26:20.345Z,1.50
2022-11-22T22:28:48.741Z,1.50
2022-11-22T22:31:21.800Z,1.45
2022-11-22T22:33:51.802Z,1.30
2022-11-22T22:36:20.571Z,1.33
2022-11-22T22:38:49.098Z,1.40
2022-11-22T22:41:17.920Z,1.15
2022-11-22T22:43:47.899Z,1.30
2022-11-22T22:46:19.816Z,1.10
2022-11-22T22:48:49.478Z,1.30
2022-11-22T22:51:20.361Z,1.30
2022-11-22T22:53:49.679Z,1.38
2022-11-22T22:56:19.577Z,1.10
2022-11-22T22:58:47.987Z,1.40
2022-11-22T23:01:19.772Z,1.20
2022-11-22T23:03:48.893Z,1.23
2022-11-22T23:06:18.600Z,1.17
2022-11-22T23:08:49.144Z,1.30
2022-11-22T23:11:19.169Z,1.30
2022-11-22T23:13:47.618Z,1.20
2022-11-22T23:16:16.677Z,1.50
2022-11-22T23:18:46.574Z,1.30
2022-11-22T23:21:16.027Z,1.40
2022-11-22T23:23:44.337Z,1.30
2022-11-22T23:26:14.309Z,1.50
2022-11-22T23:28:42.678Z,1.48
2022-11-22T23:31:12.430Z,1.40
2022-11-22T23:33:41.574Z,1.40
2022-11-22T23:36:14.175Z,1.35
2022-11-22T23:38:43.577Z,1.40
2022-11-22T23:41:13.188Z,1.48
2022-11-22T23:43:42.612Z,1.38
2022-11-22T23:46:16.031Z,1.20
2022-11-22T23:48:44.984Z,1.20
2022-11-22T23:51:15.874Z,1.20
2022-11-22T23:53:44.288Z,1.35
2022-11-22T23:56:20.440Z,1.25
2022-11-22T23:58:50.893Z,1.35
